Time;durP1;ratioP1;P1;durP2;ratioP2;P2;SDS_P1;SDS_P2;PMS_P1;PMS_P2;Temp;Humidity;BMP_temperature;BMP_pressure;BME280_temperature;BME280_humidity;BME280_pressure;Samples;Min_cycle;Max_cycle;Signal;HPM_P1;HPM_P2
2022/06/19 00:00:23;;;;;;;;;20.00;16.60;;;;;31.90;38.72;100116.94;2088361;28;47699;-60
2022/06/19 00:01:23;;;;;;;;;19.00;18.00;;;;;31.83;39.03;100118.72;2110929;27;48190;-60
2022/06/19 00:02:24;;;;;;;;;21.25;21.25;;;;;31.78;39.42;100114.84;2107078;27;47112;-61
2022/06/19 00:03:30;;;;;;;;;24.00;22.25;;;;;31.71;39.18;100116.56;2108316;27;47843;-59
2022/06/19 00:04:31;;;;;;;;;18.00;18.00;;;;;31.67;39.96;100127.06;2111340;27;48064;-59
2022/06/19 00:05:31;;;;;;;;;17.00;17.00;;;;;31.62;39.54;100130.34;2112707;27;47681;-59
2022/06/19 00:06:35;;;;;;;;;16.75;16.00;;;;;31.54;40.23;100113.97;2112755;27;47611;-60
2022/06/19 00:07:36;;;;;;;;;17.40;16.60;;;;;31.49;40.07;100115.53;2112329;27;47514;-59
2022/06/19 00:08:36;;;;;;;;;18.50;18.00;;;;;31.42;39.84;100120.91;2096812;28;47957;-58
2022/06/19 00:09:37;;;;;;;;;18.75;18.00;;;;;31.36;40.24;100127.09;2100858;28;47521;-59
2022/06/19 00:10:38;;;;;;;;;17.40;16.20;;;;;31.33;40.17;100130.22;2108131;27;48110;-58
2022/06/19 00:11:39;;;;;;;;;16.25;16.25;;;;;31.28;40.73;100125.28;2106814;27;48004;-60
2022/06/19 00:12:40;;;;;;;;;17.20;16.20;;;;;31.25;40.11;100127.53;2112099;27;47791;-59
2022/06/19 00:13:41;;;;;;;;;18.20;16.80;;;;;31.20;40.29;100110.78;2108379;27;47833;-57
2022/06/19 00:14:41;;;;;;;;;18.25;17.25;;;;;31.17;40.60;100106.47;2110819;27;47525;-60
2022/06/19 00:15:42;;;;;;;;;18.75;16.75;;;;;31.13;40.94;100118.84;2110252;27;47660;-59
2022/06/19 00:16:42;;;;;;;;;17.25;17.25;;;;;31.10;41.00;100129.31;2108374;27;48150;-59
2022/06/19 00:17:43;;;;;;;;;18.00;17.50;;;;;31.05;40.44;100127.13;2112435;27;48060;-58
2022/06/19 00:18:43;;;;;;;;;14.00;13.80;;;;;31.01;40.38;100142.22;2099696;28;47787;-57
2022/06/19 00:19:44;;;;;;;;;18.75;17.50;;;;;30.94;40.91;100144.81;2100457;28;47424;-59
2022/06/19 00:20:44;;;;;;;;;17.00;17.00;;;;;30.89;40.73;100155.47;2112205;27;46471;-57
2022/06/19 00:21:46;;;;;;;;;20.00;17.00;;;;;30.85;41.16;100175.16;2107827;27;47648;-60
2022/06/19 00:22:46;;;;;;;;;16.20;14.40;;;;;30.81;40.73;100184.78;2078520;28;46247;-59
2022/06/19 00:23:47;;;;;;;;;16.25;13.50;;;;;30.73;41.26;100200.19;2077219;28;47520;-59
2022/06/19 00:24:47;;;;;;;;;14.00;14.00;;;;;30.67;41.03;100195.44;2072937;28;47432;-59
2022/06/19 00:25:48;;;;;;;;;13.50;12.00;;;;;30.60;40.86;100188.03;2071179;28;47564;-57
2022/06/19 00:26:48;;;;;;;;;10.75;10.75;;;;;30.51;40.79;100191.84;2059303;28;47682;-57
2022/06/19 00:27:49;;;;;;;;;17.25;15.50;;;;;30.41;40.52;100200.25;2076203;28;48212;-58
2022/06/19 00:28:49;;;;;;;;;13.50;13.25;;;;;30.34;41.32;100205.56;2087456;28;47452;-58
2022/06/19 00:29:51;;;;;;;;;12.00;11.00;;;;;30.27;41.34;100193.59;2084292;28;47522;-58
2022/06/19 00:30:52;;;;;;;;;12.60;12.40;;;;;30.23;41.27;100174.94;2086524;28;47471;-59
2022/06/19 00:31:54;;;;;;;;;10.75;10.75;;;;;30.16;40.98;100158.38;2085802;28;48001;-59
2022/06/19 00:32:54;;;;;;;;;12.80;12.80;;;;;30.10;40.91;100165.38;2083996;28;47518;-58
2022/06/19 00:33:55;;;;;;;;;11.75;11.00;;;;;30.06;41.00;100187.78;2087791;28;47467;-57
2022/06/19 00:34:55;;;;;;;;;13.75;13.75;;;;;29.99;40.95;100195.81;2084508;28;47778;-60
2022/06/19 00:35:56;;;;;;;;;15.50;13.25;;;;;29.94;40.98;100191.88;2084453;28;47402;-59
2022/06/19 00:36:56;;;;;;;;;10.00;10.00;;;;;29.87;41.17;100195.31;2087509;28;47604;-59
2022/06/19 00:37:57;;;;;;;;;11.50;10.25;;;;;29.80;40.92;100205.19;2080719;28;47633;-60
2022/06/19 00:38:58;;;;;;;;;10.60;9.00;;;;;29.73;40.85;100201.44;2079658;28;47859;-59
2022/06/19 00:39:58;;;;;;;;;11.50;9.25;;;;;29.67;40.86;100188.44;2086075;28;47969;-59
2022/06/19 00:41:00;;;;;;;;;8.75;8.75;;;;;29.61;40.59;100160.94;2075060;28;48297;-58
2022/06/19 00:42:01;;;;;;;;;9.60;9.20;;;;;29.54;40.37;100174.41;2078793;28;48358;-61
2022/06/19 00:43:01;;;;;;;;;8.50;7.00;;;;;29.49;40.22;100185.00;2084714;28;47753;-59
2022/06/19 00:44:04;;;;;;;;;7.00;7.00;;;;;29.42;40.13;100184.78;2075305;28;47885;-60
2022/06/19 00:45:05;;;;;;;;;9.00;7.60;;;;;29.35;40.18;100182.88;2072486;28;48283;-59
2022/06/19 00:46:39;;;;;;;;;7.50;7.50;;;;;29.24;40.42;100175.88;2074586;28;46805;-59
2022/06/19 00:47:39;;;;;;;;;8.60;8.60;;;;;29.15;40.32;100182.31;2080105;28;47874;-60
2022/06/19 00:48:40;;;;;;;;;8.00;7.00;;;;;29.10;40.17;100182.81;2085561;28;48003;-60
2022/06/19 00:49:50;;;;;;;;;7.20;7.00;;;;;29.06;40.18;100175.09;2079728;28;48051;-59
2022/06/19 00:50:53;;;;;;;;;7.60;7.60;;;;;29.00;39.92;100176.63;2082773;28;47634;-59
2022/06/19 00:52:01;;;;;;;;;7.00;6.80;;;;;28.94;40.25;100188.19;2083139;28;47724;-59
2022/06/19 00:53:06;;;;;;;;;7.60;6.60;;;;;28.85;40.09;100179.09;2079458;28;47728;-60
2022/06/19 00:54:09;;;;;;;;;7.00;7.00;;;;;28.77;39.83;100173.59;2077586;28;48146;-58
2022/06/19 00:55:22;;;;;;;;;7.00;7.00;;;;;28.66;40.46;100171.16;2105293;28;46835;-59
2022/06/19 00:56:25;;;;;;;;;9.20;7.60;;;;;28.55;39.92;100187.81;2112042;27;47705;-59
2022/06/19 00:57:28;;;;;;;;;6.80;6.40;;;;;28.46;40.36;100203.31;2107373;27;47764;-59
2022/06/19 00:58:36;;;;;;;;;7.60;7.20;;;;;28.39;40.26;100203.06;2087239;28;47533;-59
2022/06/19 00:59:41;;;;;;;;;7.20;7.20;;;;;28.34;40.69;100202.72;2090870;27;47649;-59
2022/06/19 01:00:45;;;;;;;;;8.00;8.00;;;;;28.28;40.70;100218.84;2107530;27;47580;-59
2022/06/19 01:01:46;;;;;;;;;8.00;8.00;;;;;28.24;40.48;100234.66;2109485;27;47977;-58
2022/06/19 01:02:47;;;;;;;;;10.60;8.60;;;;;28.22;40.94;100224.94;2111843;27;45586;-58
2022/06/19 01:03:54;;;;;;;;;6.50;6.25;;;;;28.17;40.46;100236.28;2107730;27;48109;-60
2022/06/19 01:04:55;;;;;;;;;5.00;5.00;;;;;28.10;40.23;100254.31;2113718;27;47273;-59
2022/06/19 01:05:56;;;;;;;;;7.40;7.40;;;;;28.00;40.24;100245.38;2113804;27;47784;-58
2022/06/19 01:06:57;;;;;;;;;9.50;7.50;;;;;27.88;40.66;100241.16;2107736;27;47361;-58
2022/06/19 01:08:00;;;;;;;;;8.00;6.25;;;;;27.75;40.53;100233.38;2111646;27;47730;-58
2022/06/19 01:09:01;;;;;;;;;7.60;7.40;;;;;27.66;40.87;100232.41;2110321;27;47784;-59
2022/06/19 01:10:02;;;;;;;;;6.75;6.75;;;;;27.58;41.01;100235.06;2107616;27;47396;-58
2022/06/19 01:11:04;;;;;;;;;8.80;7.80;;;;;27.52;41.18;100230.19;2096097;28;47938;-59
2022/06/19 01:12:05;;;;;;;;;7.60;6.80;;;;;27.45;40.71;100224.53;2099852;27;48158;-60
2022/06/19 01:13:06;;;;;;;;;7.80;7.80;;;;;27.39;41.17;100221.53;2093146;28;47936;-59
2022/06/19 01:14:11;;;;;;;;;8.80;8.80;;;;;27.32;40.68;100228.63;2087373;28;48212;-60
2022/06/19 01:15:16;;;;;;;;;8.20;8.20;;;;;27.26;41.10;100233.66;2107846;27;45710;-59
2022/06/19 01:16:17;;;;;;;;;8.60;8.40;;;;;27.21;41.36;100229.69;2103200;28;47852;-58
2022/06/19 01:17:18;;;;;;;;;10.60;9.20;;;;;27.14;41.02;100229.44;2103077;27;47178;-58
2022/06/19 01:18:19;;;;;;;;;9.80;9.80;;;;;27.09;41.26;100229.03;2110398;27;47972;-58
2022/06/19 01:19:28;;;;;;;;;10.20;10.00;;;;;27.01;40.99;100218.03;2113709;27;47325;-58
2022/06/19 01:20:31;;;;;;;;;6.40;6.00;;;;;26.91;41.58;100212.59;2104809;28;47441;-59
2022/06/19 01:21:46;;;;;;;;;8.80;8.80;;;;;26.84;42.07;100216.06;2106833;27;47605;-59
2022/06/19 01:23:09;;;;;;;;;9.20;9.20;;;;;26.75;42.01;100230.56;2101344;28;47540;-58
2022/06/19 01:24:24;;;;;;;;;10.60;8.80;;;;;26.66;42.30;100225.00;2101616;27;47990;-59
2022/06/19 01:25:36;;;;;;;;;11.20;9.80;;;;;26.61;42.38;100227.34;2111000;27;47558;-59
2022/06/19 01:26:42;;;;;;;;;11.60;9.00;;;;;26.57;42.24;100220.47;2110680;27;48093;-59
2022/06/19 01:29:10;;;;;;;;;11.60;10.40;;;;;26.49;42.35;100205.88;2112250;27;47943;-59
2022/06/19 01:30:11;;;;;;;;;10.25;10.25;;;;;26.42;42.54;100216.47;2111477;27;48027;-59
2022/06/19 01:31:17;;;;;;;;;12.20;9.20;;;;;26.33;41.96;100209.19;2101408;28;46939;-60
2022/06/19 01:32:17;;;;;;;;;10.60;9.00;;;;;26.27;42.70;100215.19;2104839;27;47973;-59
2022/06/19 01:33:22;;;;;;;;;7.50;7.00;;;;;26.23;42.49;100211.94;2110271;27;47783;-58
2022/06/19 01:34:38;;;;;;;;;9.20;8.00;;;;;26.19;42.21;100213.22;2113390;27;47887;-58
2022/06/19 01:35:41;;;;;;;;;11.40;10.20;;;;;26.15;42.67;100227.25;2113807;27;47822;-58
2022/06/19 01:36:41;;;;;;;;;11.40;11.40;;;;;26.10;42.15;100228.53;2113428;27;47914;-58
2022/06/19 01:37:43;;;;;;;;;10.00;10.00;;;;;26.08;42.49;100235.16;2108756;27;47518;-58
2022/06/19 01:38:48;;;;;;;;;11.00;10.60;;;;;26.00;42.06;100227.69;2104990;28;47516;-58
2022/06/19 01:39:57;;;;;;;;;12.40;10.40;;;;;25.92;42.27;100216.69;2111795;27;48172;-57
2022/06/19 01:41:04;;;;;;;;;13.60;11.60;;;;;25.86;42.14;100228.13;2111266;27;47691;-59
2022/06/19 01:42:05;;;;;;;;;12.60;11.00;;;;;25.78;42.52;100234.28;2112990;27;47696;-58
2022/06/19 01:43:06;;;;;;;;;8.60;8.60;;;;;25.71;42.98;100235.00;2112147;27;47570;-59
2022/06/19 01:44:06;;;;;;;;;13.50;12.25;;;;;25.65;42.46;100238.22;2110578;27;47494;-57
2022/06/19 01:45:07;;;;;;;;;9.25;7.50;;;;;25.57;43.11;100233.53;2113832;27;48165;-58
2022/06/19 01:46:08;;;;;;;;;13.60;10.60;;;;;25.49;43.13;100242.38;2110921;27;48182;-60
2022/06/19 01:47:09;;;;;;;;;9.25;8.75;;;;;25.44;43.07;100241.09;2111405;27;47601;-58
2022/06/19 01:48:11;;;;;;;;;10.60;10.60;;;;;25.41;43.36;100246.78;2113916;27;47892;-59
2022/06/19 01:49:12;;;;;;;;;12.80;12.80;;;;;25.37;43.30;100242.63;2110813;27;46742;-59
2022/06/19 01:50:21;;;;;;;;;12.00;11.00;;;;;25.31;43.46;100245.91;2111778;27;47833;-59
2022/06/19 01:51:22;;;;;;;;;8.80;8.80;;;;;25.28;43.11;100257.03;2095331;28;46804;-58
2022/06/19 01:52:26;;;;;;;;;12.50;12.00;;;;;25.27;43.51;100245.31;2091715;27;48014;-57
2022/06/19 01:53:38;;;;;;;;;12.40;11.00;;;;;25.23;43.46;100236.59;2111826;27;48123;-59
2022/06/19 01:54:43;;;;;;;;;12.60;10.40;;;;;25.20;43.32;100238.72;2107633;27;48153;-59
2022/06/19 01:55:44;;;;;;;;;12.20;11.60;;;;;25.19;42.88;100237.03;2111819;27;48439;-58
2022/06/19 01:56:45;;;;;;;;;10.40;9.80;;;;;25.16;43.14;100230.00;2113345;27;47784;-59
2022/06/19 01:57:50;;;;;;;;;13.75;10.75;;;;;25.16;43.14;100221.88;2113833;27;47812;-58
2022/06/19 01:58:55;;;;;;;;;9.40;9.40;;;;;25.13;43.36;100215.84;2098195;28;46634;-59
2022/06/19 01:59:57;;;;;;;;;10.40;10.40;;;;;25.09;43.51;100201.69;2094661;28;48122;-58
2022/06/19 02:00:58;;;;;;;;;8.20;7.40;;;;;25.07;42.97;100197.41;2100090;27;48501;-58
2022/06/19 02:02:01;;;;;;;;;11.00;9.80;;;;;25.06;43.04;100190.25;2113671;27;47271;-59
2022/06/19 02:03:23;;;;;;;;;11.60;11.60;;;;;25.01;43.01;100187.94;2113150;27;45279;-58
2022/06/19 02:04:23;;;;;;;;;9.60;9.00;;;;;24.98;43.19;100201.75;2110984;27;47958;-58
2022/06/19 02:05:24;;;;;;;;;11.00;9.00;;;;;24.96;43.05;100201.03;2107035;27;47415;-57
2022/06/19 02:06:28;;;;;;;;;6.25;6.25;;;;;24.92;43.21;100192.31;2111419;27;47525;-61
2022/06/19 02:07:32;;;;;;;;;11.00;10.40;;;;;24.91;43.40;100196.03;2109958;27;48096;-58
2022/06/19 02:08:34;;;;;;;;;8.40;8.00;;;;;24.90;43.24;100205.19;2107393;27;47629;-58
2022/06/19 02:09:35;;;;;;;;;9.60;8.80;;;;;24.88;43.34;100204.44;2111418;27;47804;-59
2022/06/19 02:10:40;;;;;;;;;10.00;8.50;;;;;24.86;43.14;100220.00;2108929;27;47209;-57
2022/06/19 02:11:41;;;;;;;;;10.20;8.60;;;;;24.84;43.55;100224.72;2109473;27;48002;-59
2022/06/19 02:12:42;;;;;;;;;10.60;10.60;;;;;24.83;43.41;100231.13;2112828;27;47633;-60
2022/06/19 02:13:44;;;;;;;;;9.80;7.80;;;;;24.82;43.49;100234.84;2109194;27;47980;-58
2022/06/19 02:14:45;;;;;;;;;10.00;7.40;;;;;24.81;43.80;100248.56;2113228;27;47085;-59
2022/06/19 02:15:48;;;;;;;;;10.25;9.75;;;;;24.80;43.40;100263.13;2113287;27;47502;-58
2022/06/19 02:16:49;;;;;;;;;7.20;6.60;;;;;24.78;43.28;100265.97;2109864;27;47894;-59
2022/06/19 02:17:52;;;;;;;;;12.20;10.60;;;;;24.77;43.86;100266.09;2112498;27;48065;-59
2022/06/19 02:18:53;;;;;;;;;8.00;8.00;;;;;24.77;43.69;100274.22;2111010;27;47798;-58
2022/06/19 02:19:54;;;;;;;;;11.00;10.40;;;;;24.75;43.69;100290.66;2109170;27;47772;-58
2022/06/19 02:20:54;;;;;;;;;8.75;8.00;;;;;24.75;43.61;100292.50;2113203;27;47850;-59
2022/06/19 02:21:55;;;;;;;;;9.25;8.25;;;;;24.73;43.67;100302.63;2106636;27;47550;-56
2022/06/19 02:22:57;;;;;;;;;9.25;9.00;;;;;24.74;43.88;100310.63;2104760;28;47576;-59
2022/06/19 02:23:57;;;;;;;;;7.80;7.60;;;;;24.75;43.78;100314.22;2112705;27;47771;-60
2022/06/19 02:24:58;;;;;;;;;6.50;6.50;;;;;24.76;44.06;100303.22;2109407;27;47785;-59
2022/06/19 02:25:59;;;;;;;;;8.00;8.00;;;;;24.78;43.71;100294.97;2111440;27;47935;-58
2022/06/19 02:27:01;;;;;;;;;7.20;7.20;;;;;24.79;43.65;100288.56;2104626;27;47496;-56
2022/06/19 02:28:03;;;;;;;;;10.00;10.00;;;;;24.80;43.58;100287.56;2106028;27;48060;-58
2022/06/19 02:29:09;;;;;;;;;10.60;8.60;;;;;24.79;43.89;100288.56;2112474;27;47708;-58
2022/06/19 02:30:13;;;;;;;;;7.80;7.80;;;;;24.77;43.96;100285.09;2110580;27;47527;-58
2022/06/19 02:31:16;;;;;;;;;8.00;8.00;;;;;24.76;43.76;100289.66;2109085;27;47651;-58
2022/06/19 02:32:39;;;;;;;;;7.60;6.60;;;;;24.75;43.85;100287.94;2112982;27;47870;-58
2022/06/19 02:33:47;;;;;;;;;9.20;7.40;;;;;24.77;43.85;100299.50;2112689;27;48113;-58
2022/06/19 02:34:48;;;;;;;;;11.00;10.00;;;;;24.76;43.58;100303.22;2108756;27;47887;-60
2022/06/19 02:35:48;;;;;;;;;7.80;5.80;;;;;24.74;44.19;100290.78;2110049;27;47996;-57
2022/06/19 02:36:54;;;;;;;;;7.33;6.00;;;;;24.73;43.83;100299.91;2103291;28;47423;-58
2022/06/19 02:37:56;;;;;;;;;7.60;7.60;;;;;24.70;44.03;100298.34;2100786;27;47749;-58
2022/06/19 02:39:04;;;;;;;;;7.20;7.20;;;;;24.68;43.90;100294.91;2110300;27;47720;-58
2022/06/19 02:40:20;;;;;;;;;7.40;7.40;;;;;24.66;43.77;100299.63;2112383;27;47416;-58
2022/06/19 02:41:26;;;;;;;;;8.20;8.20;;;;;24.66;44.14;100299.63;2109701;27;46524;-58
2022/06/19 02:42:44;;;;;;;;;5.80;5.80;;;;;24.66;44.20;100302.31;2108654;27;47952;-56
2022/06/19 02:43:44;;;;;;;;;9.20;7.00;;;;;24.68;44.12;100310.34;2110608;27;48258;-58
2022/06/19 02:44:48;;;;;;;;;9.75;7.75;;;;;24.69;44.13;100299.34;2101438;28;47828;-57
2022/06/19 02:45:48;;;;;;;;;9.80;9.20;;;;;24.69;44.08;100298.47;2099779;27;47170;-58
2022/06/19 02:46:49;;;;;;;;;6.50;6.50;;;;;24.68;44.10;100294.06;2112953;27;47712;-57
2022/06/19 02:47:51;;;;;;;;;8.00;7.00;;;;;24.67;44.23;100295.03;2113043;27;47995;-58
2022/06/19 02:48:52;;;;;;;;;10.60;8.20;;;;;24.64;44.26;100297.00;2108150;27;48080;-58
2022/06/19 02:49:53;;;;;;;;;7.00;7.00;;;;;24.63;43.98;100303.44;2113272;27;47849;-58
2022/06/19 02:50:55;;;;;;;;;9.80;8.60;;;;;24.61;44.28;100313.56;2099346;28;47936;-58
2022/06/19 02:51:56;;;;;;;;;11.40;8.80;;;;;24.60;44.22;100329.97;2100494;28;46505;-59
2022/06/19 02:52:57;;;;;;;;;9.25;8.00;;;;;24.62;44.24;100341.56;2111897;27;47758;-58
2022/06/19 02:53:58;;;;;;;;;7.20;7.20;;;;;24.62;44.30;100377.69;2112966;27;48025;-58
2022/06/19 02:54:59;;;;;;;;;7.60;7.00;;;;;24.65;44.62;100455.28;2104537;27;47992;-58
2022/06/19 02:55:59;;;;;;;;;8.00;8.00;;;;;24.65;44.24;100537.53;2108150;27;47458;-61
2022/06/19 02:57:00;;;;;;;;;9.25;8.00;;;;;24.67;44.24;100575.41;2107870;27;47696;-60
2022/06/19 02:58:00;;;;;;;;;7.00;6.00;;;;;24.70;44.10;100564.28;2102215;28;47637;-58
2022/06/19 02:59:01;;;;;;;;;7.25;7.25;;;;;24.72;44.22;100510.72;2103736;28;47491;-58
2022/06/19 03:00:03;;;;;;;;;7.50;6.75;;;;;24.75;44.25;100442.63;2108745;27;48074;-58
2022/06/19 03:01:03;;;;;;;;;8.40;8.00;;;;;24.78;44.26;100417.97;2095752;28;47976;-59
2022/06/19 03:02:04;;;;;;;;;7.00;7.00;;;;;24.81;44.36;100430.41;2096187;28;47804;-58
2022/06/19 03:03:16;;;;;;;;;7.80;7.80;;;;;24.84;43.78;100462.69;2110870;27;47646;-58
2022/06/19 03:04:23;;;;;;;;;10.60;8.60;;;;;24.86;44.01;100499.56;2110142;27;47829;-58
2022/06/19 03:05:26;;;;;;;;;7.80;7.40;;;;;24.88;43.69;100522.00;2106012;27;47558;-58
2022/06/19 03:06:27;;;;;;;;;7.00;6.80;;;;;24.92;43.58;100507.22;2109217;27;48063;-59
2022/06/19 03:07:29;;;;;;;;;11.25;10.00;;;;;24.95;44.32;100511.50;2109674;27;48000;-58
2022/06/19 03:08:29;;;;;;;;;10.00;10.00;;;;;24.97;43.60;100514.94;2105708;27;46999;-58
2022/06/19 03:09:30;;;;;;;;;10.25;9.25;;;;;24.97;43.69;100505.94;2110895;27;46939;-58
2022/06/19 03:10:30;;;;;;;;;8.75;7.50;;;;;24.99;43.58;100482.25;2107774;27;47121;-58
2022/06/19 03:11:31;;;;;;;;;9.00;8.25;;;;;25.01;44.00;100485.72;2107181;27;47552;-58
2022/06/19 03:12:31;;;;;;;;;7.75;7.25;;;;;25.02;43.41;100487.44;2111319;27;47468;-58
2022/06/19 03:13:32;;;;;;;;;9.25;8.00;;;;;25.02;43.67;100504.59;2109224;27;47610;-59
2022/06/19 03:14:33;;;;;;;;;8.50;8.50;;;;;25.02;43.64;100484.72;2112698;27;47368;-59
2022/06/19 03:15:33;;;;;;;;;9.50;8.00;;;;;25.03;43.70;100459.28;2084339;28;47423;-59
2022/06/19 03:16:34;;;;;;;;;7.75;7.75;;;;;25.03;43.68;100451.13;2082329;28;47652;-58
2022/06/19 03:17:34;;;;;;;;;7.75;7.75;;;;;25.06;43.71;100480.78;2096293;28;47099;-59
2022/06/19 03:18:36;;;;;;;;;10.00;7.50;;;;;25.07;43.67;100502.34;2107179;27;47607;-59
2022/06/19 03:19:37;;;;;;;;;12.00;10.40;;;;;25.08;43.36;100493.22;2110368;27;48054;-58
2022/06/19 03:20:37;;;;;;;;;9.25;9.25;;;;;25.09;43.68;100458.78;2111536;27;47941;-58
2022/06/19 03:21:38;;;;;;;;;8.75;7.75;;;;;25.10;43.04;100434.19;2112876;27;47521;-59
2022/06/19 03:22:38;;;;;;;;;10.25;10.25;;;;;25.10;43.32;100427.91;2102664;27;47518;-59
2022/06/19 03:23:39;;;;;;;;;7.75;7.50;;;;;25.11;43.43;100435.06;2113069;27;47646;-57
2022/06/19 03:24:40;;;;;;;;;7.75;7.75;;;;;25.11;43.38;100437.78;2108882;27;48069;-58
2022/06/19 03:25:40;;;;;;;;;8.00;8.00;;;;;25.08;43.33;100428.03;2103594;28;47945;-59
2022/06/19 03:26:41;;;;;;;;;9.25;9.25;;;;;25.06;42.98;100411.03;2100264;28;47845;-58
2022/06/19 03:27:41;;;;;;;;;8.00;8.00;;;;;25.05;43.28;100424.75;2110167;27;48127;-58
2022/06/19 03:28:42;;;;;;;;;9.25;9.00;;;;;25.05;43.19;100458.19;2111734;27;47667;-58
2022/06/19 03:29:42;;;;;;;;;10.00;10.00;;;;;25.05;43.52;100490.78;2108584;27;47561;-58
2022/06/19 03:30:43;;;;;;;;;6.50;6.50;;;;;25.06;43.52;100505.19;2111576;27;47797;-56
2022/06/19 03:31:43;;;;;;;;;12.75;10.75;;;;;25.06;43.61;100481.63;2109710;27;46664;-57
2022/06/19 03:32:44;;;;;;;;;7.50;6.50;;;;;25.08;43.31;100465.19;2099062;28;48076;-57
2022/06/19 03:33:44;;;;;;;;;8.00;7.75;;;;;25.08;43.18;100447.06;2103255;28;47729;-58
2022/06/19 03:34:45;;;;;;;;;8.75;7.00;;;;;25.06;43.10;100448.19;2112645;27;47694;-58
2022/06/19 03:35:46;;;;;;;;;11.50;10.50;;;;;25.06;43.08;100442.75;2110403;27;46625;-58
2022/06/19 03:36:46;;;;;;;;;10.50;10.00;;;;;25.02;43.19;100441.28;2101882;28;47869;-57
2022/06/19 03:37:47;;;;;;;;;8.00;7.50;;;;;24.99;42.77;100445.09;2099008;28;47267;-58
2022/06/19 03:38:47;;;;;;;;;8.00;6.00;;;;;24.94;42.92;100445.50;2111713;27;47488;-58
2022/06/19 03:39:48;;;;;;;;;11.00;9.25;;;;;24.92;43.27;100449.34;2110085;27;47914;-60
2022/06/19 03:40:49;;;;;;;;;9.40;6.80;;;;;24.88;43.56;100432.44;2108966;27;47421;-58
2022/06/19 03:41:50;;;;;;;;;9.00;8.00;;;;;24.89;43.50;100441.44;2103998;28;47986;-57
2022/06/19 03:42:50;;;;;;;;;8.25;8.25;;;;;24.89;43.30;100434.16;2099882;27;47949;-57
2022/06/19 03:43:51;;;;;;;;;6.25;6.25;;;;;24.88;43.28;100443.28;2110460;27;47791;-58
2022/06/19 03:44:51;;;;;;;;;9.25;8.00;;;;;24.86;43.56;100444.44;2111617;27;48205;-59
2022/06/19 03:45:58;;;;;;;;;10.50;8.75;;;;;24.84;43.10;100446.41;2112555;27;47979;-57
2022/06/19 03:46:58;;;;;;;;;10.80;9.20;;;;;24.82;43.32;100441.13;2104666;27;47478;-58
2022/06/19 03:47:59;;;;;;;;;10.50;10.50;;;;;24.82;42.98;100445.69;2111226;27;47810;-59
2022/06/19 03:48:59;;;;;;;;;10.50;9.50;;;;;24.81;43.61;100449.41;2109271;27;47771;-59
2022/06/19 03:50:01;;;;;;;;;9.75;9.25;;;;;24.79;43.34;100468.53;2112270;27;47325;-56
2022/06/19 03:51:02;;;;;;;;;8.40;8.40;;;;;24.79;43.49;100473.97;2100320;28;47673;-60
2022/06/19 03:52:02;;;;;;;;;8.75;8.75;;;;;24.81;43.48;100471.97;2099909;28;47540;-57
2022/06/19 03:53:03;;;;;;;;;9.00;9.00;;;;;24.84;43.41;100481.69;2113404;27;45978;-58
2022/06/19 03:54:07;;;;;;;;;10.50;9.00;;;;;24.84;43.12;100482.56;2108632;27;47633;-58
2022/06/19 03:55:07;;;;;;;;;11.00;10.40;;;;;24.85;42.78;100486.13;2104434;28;47579;-58
2022/06/19 03:56:14;;;;;;;;;13.50;10.00;;;;;24.85;43.10;100480.69;2108885;27;47512;-57
2022/06/19 03:57:15;;;;;;;;;11.40;10.80;;;;;24.83;42.98;100461.84;2114398;27;47785;-59
2022/06/19 03:58:15;;;;;;;;;9.00;8.40;;;;;24.82;43.04;100441.13;2112190;27;47715;-59
2022/06/19 03:59:16;;;;;;;;;10.25;10.25;;;;;24.80;43.42;100423.25;2109746;27;48087;-58
2022/06/19 04:00:18;;;;;;;;;12.40;10.60;;;;;24.76;42.93;100421.78;2108511;27;48337;-58
2022/06/19 04:01:21;;;;;;;;;13.00;11.20;;;;;24.72;42.94;100421.19;2113617;27;48121;-57
2022/06/19 04:02:22;;;;;;;;;11.40;10.40;;;;;24.68;43.14;100418.88;2113944;27;47362;-58
2022/06/19 04:03:22;;;;;;;;;13.75;12.00;;;;;24.63;43.22;100427.38;2109957;27;47652;-60
2022/06/19 04:04:22;;;;;;;;;10.75;9.50;;;;;24.61;43.05;100438.38;2111854;27;47634;-56
2022/06/19 04:05:23;;;;;;;;;11.75;11.75;;;;;24.57;43.33;100445.06;2107598;27;48206;-58
2022/06/19 04:06:27;;;;;;;;;12.75;11.75;;;;;24.53;43.21;100446.31;2111390;27;47836;-59
2022/06/19 04:07:27;;;;;;;;;7.20;5.40;;;;;24.49;43.29;100452.97;2110822;27;47991;-58
2022/06/19 04:08:28;;;;;;;;;9.25;9.25;;;;;24.49;43.51;100471.09;2108097;27;47896;-59
2022/06/19 04:09:28;;;;;;;;;11.50;10.75;;;;;24.50;43.71;100495.38;2112728;27;47431;-58
2022/06/19 04:10:29;;;;;;;;;7.50;7.00;;;;;24.52;43.50;100517.84;2108743;27;48228;-58
2022/06/19 04:11:30;;;;;;;;;11.75;9.50;;;;;24.53;43.54;100543.13;2109246;27;47877;-58
2022/06/19 04:12:30;;;;;;;;;9.00;8.00;;;;;24.53;43.62;100570.25;2112785;27;48177;-58
2022/06/19 04:13:35;;;;;;;;;9.00;9.00;;;;;24.53;43.47;100589.25;2110441;27;47575;-58
2022/06/19 04:14:36;;;;;;;;;10.00;8.40;;;;;24.53;43.44;100602.81;2113169;27;47580;-57
2022/06/19 04:15:37;;;;;;;;;9.20;9.20;;;;;24.52;43.38;100612.81;2111577;27;47641;-57
2022/06/19 04:16:37;;;;;;;;;10.75;10.25;;;;;24.52;43.20;100609.19;2110356;27;47352;-59
2022/06/19 04:17:39;;;;;;;;;7.50;7.50;;;;;24.52;43.73;100574.81;2114072;27;47993;-57
2022/06/19 04:18:40;;;;;;;;;9.00;8.40;;;;;24.52;43.15;100525.09;2110760;27;47390;-57
2022/06/19 04:19:40;;;;;;;;;8.75;8.75;;;;;24.52;43.31;100438.28;2111276;27;47387;-57
2022/06/19 04:20:41;;;;;;;;;9.75;9.75;;;;;24.53;43.51;100369.50;2113798;27;47952;-58
2022/06/19 04:21:43;;;;;;;;;8.00;8.00;;;;;24.54;43.75;100339.53;2109644;27;48045;-56
2022/06/19 04:22:44;;;;;;;;;13.00;9.80;;;;;24.54;43.83;100325.09;2102852;28;47677;-58
2022/06/19 04:23:45;;;;;;;;;7.50;7.50;;;;;24.54;44.00;100327.81;2112605;27;45808;-57
2022/06/19 04:24:46;;;;;;;;;12.00;11.00;;;;;24.52;44.67;100349.66;2091977;28;48134;-57
2022/06/19 04:25:46;;;;;;;;;8.50;8.50;;;;;24.50;44.93;100365.16;2095959;28;46569;-58
2022/06/19 04:26:47;;;;;;;;;8.00;8.00;;;;;24.49;45.44;100359.88;2110076;27;46912;-58
2022/06/19 04:27:47;;;;;;;;;9.00;9.00;;;;;24.47;45.36;100364.56;2110684;27;47331;-57
2022/06/19 04:28:48;;;;;;;;;11.50;10.75;;;;;24.45;45.28;100361.13;2113841;27;47710;-57
2022/06/19 04:29:49;;;;;;;;;7.40;7.40;;;;;24.43;44.90;100353.13;2110046;27;47366;-57
2022/06/19 04:30:53;;;;;;;;;10.75;10.50;;;;;24.42;45.59;100351.41;2112271;27;47666;-56
2022/06/19 04:31:55;;;;;;;;;10.00;9.20;;;;;24.40;45.02;100353.41;2112496;27;48802;-58
2022/06/19 04:32:56;;;;;;;;;11.80;11.80;;;;;24.38;44.92;100355.34;2110030;27;47568;-57
2022/06/19 04:33:56;;;;;;;;;12.75;12.25;;;;;24.35;45.07;100364.63;2112856;27;47696;-59
2022/06/19 04:34:57;;;;;;;;;8.00;8.00;;;;;24.32;45.42;100362.19;2111389;27;48108;-59
2022/06/19 04:35:58;;;;;;;;;8.00;8.00;;;;;24.28;45.47;100371.53;2109756;27;47380;-59
2022/06/19 04:36:58;;;;;;;;;11.00;10.75;;;;;24.27;45.54;100375.25;2113726;27;47776;-59
2022/06/19 04:37:58;;;;;;;;;9.50;7.75;;;;;24.27;45.36;100382.53;2110114;27;47649;-59
2022/06/19 04:38:59;;;;;;;;;8.00;8.00;;;;;24.26;45.57;100386.19;2111130;27;47260;-59
2022/06/19 04:40:00;;;;;;;;;9.00;8.00;;;;;24.25;45.47;100377.19;2113412;27;47887;-57
2022/06/19 04:41:00;;;;;;;;;8.00;8.00;;;;;24.26;46.04;100368.06;2119745;27;47838;-58
2022/06/19 04:42:01;;;;;;;;;7.00;7.00;;;;;24.25;46.12;100365.50;2113149;27;47430;-58
2022/06/19 04:43:02;;;;;;;;;11.40;7.80;;;;;24.23;46.37;100365.63;2111263;27;48062;-57
2022/06/19 04:44:06;;;;;;;;;9.00;9.00;;;;;24.22;46.07;100373.91;2113885;27;47877;-57
2022/06/19 04:45:07;;;;;;;;;11.00;9.60;;;;;24.21;46.36;100385.72;2114004;27;47237;-58
2022/06/19 04:46:09;;;;;;;;;7.20;7.20;;;;;24.19;46.51;100404.84;2101150;28;47832;-58
2022/06/19 04:47:09;;;;;;;;;10.60;9.40;;;;;24.18;46.52;100408.53;2101641;28;46145;-58
2022/06/19 04:48:10;;;;;;;;;9.00;9.00;;;;;24.16;46.61;100415.94;2113745;27;48025;-58
2022/06/19 04:49:12;;;;;;;;;9.00;7.00;;;;;24.18;46.51;100399.56;2109904;27;47933;-58